sensor_id;sensor_type;location;lat;lon;timestamp;P1;durP1;ratioP1;P2;durP2;ratioP2
45762;SDS011;37512;52.408;13.356;2024-01-27T00:03:31;17.17;;;3.05;;
45762;SDS011;37512;52.408;13.356;2024-01-27T00:07:33;16.33;;;3.28;;
45762;SDS011;37512;52.408;13.356;2024-01-27T00:11:35;4.47;;;1.48;;
45762;SDS011;37512;52.408;13.356;2024-01-27T00:15:36;16.83;;;2.92;;
45762;SDS011;37512;52.408;13.356;2024-01-27T00:19:38;11.80;;;2.70;;
45762;SDS011;37512;52.408;13.356;2024-01-27T00:23:41;22.58;;;3.40;;
45762;SDS011;37512;52.408;13.356;2024-01-27T00:27:43;8.35;;;2.85;;
45762;SDS011;37512;52.408;13.356;2024-01-27T00:31:45;16.25;;;3.00;;
45762;SDS011;37512;52.408;13.356;2024-01-27T00:35:47;7.18;;;2.22;;
45762;SDS011;37512;52.408;13.356;2024-01-27T00:39:49;29.65;;;3.30;;
45762;SDS011;37512;52.408;13.356;2024-01-27T00:43:50;1.38;;;1.20;;
45762;SDS011;37512;52.408;13.356;2024-01-27T00:47:52;6.63;;;1.90;;
45762;SDS011;37512;52.408;13.356;2024-01-27T00:51:54;9.88;;;2.53;;
45762;SDS011;37512;52.408;13.356;2024-01-27T00:55:56;15.23;;;2.75;;
45762;SDS011;37512;52.408;13.356;2024-01-27T00:59:57;2.55;;;1.00;;
45762;SDS011;37512;52.408;13.356;2024-01-27T01:04:00;10.65;;;1.90;;
45762;SDS011;37512;52.408;13.356;2024-01-27T01:08:01;9.60;;;2.13;;
45762;SDS011;37512;52.408;13.356;2024-01-27T01:12:03;10.80;;;2.67;;
45762;SDS011;37512;52.408;13.356;2024-01-27T01:16:06;12.00;;;2.05;;
45762;SDS011;37512;52.408;13.356;2024-01-27T01:20:09;11.82;;;2.30;;
45762;SDS011;37512;52.408;13.356;2024-01-27T01:24:11;4.13;;;1.92;;
45762;SDS011;37512;52.408;13.356;2024-01-27T01:28:13;13.45;;;1.52;;
45762;SDS011;37512;52.408;13.356;2024-01-27T01:32:15;12.52;;;3.40;;
45762;SDS011;37512;52.408;13.356;2024-01-27T01:36:17;9.43;;;2.88;;
45762;SDS011;37512;52.408;13.356;2024-01-27T01:40:19;9.95;;;3.22;;
45762;SDS011;37512;52.408;13.356;2024-01-27T01:44:20;21.92;;;4.18;;
45762;SDS011;37512;52.408;13.356;2024-01-27T01:48:22;25.02;;;3.42;;
45762;SDS011;37512;52.408;13.356;2024-01-27T01:52:24;15.80;;;3.15;;
45762;SDS011;37512;52.408;13.356;2024-01-27T01:56:25;16.00;;;3.42;;
45762;SDS011;37512;52.408;13.356;2024-01-27T02:00:28;12.88;;;2.50;;
45762;SDS011;37512;52.408;13.356;2024-01-27T02:04:38;10.80;;;2.42;;
45762;SDS011;37512;52.408;13.356;2024-01-27T02:08:43;13.13;;;2.13;;
45762;SDS011;37512;52.408;13.356;2024-01-27T02:12:45;8.88;;;2.13;;
45762;SDS011;37512;52.408;13.356;2024-01-27T02:16:47;9.48;;;1.98;;
45762;SDS011;37512;52.408;13.356;2024-01-27T02:20:48;6.47;;;2.45;;
45762;SDS011;37512;52.408;13.356;2024-01-27T02:24:50;12.18;;;2.83;;
45762;SDS011;37512;52.408;13.356;2024-01-27T02:28:52;15.60;;;3.47;;
45762;SDS011;37512;52.408;13.356;2024-01-27T02:32:55;7.28;;;1.73;;
45762;SDS011;37512;52.408;13.356;2024-01-27T02:36:57;8.93;;;2.03;;
45762;SDS011;37512;52.408;13.356;2024-01-27T02:40:58;8.80;;;2.40;;
45762;SDS011;37512;52.408;13.356;2024-01-27T02:45:00;12.25;;;3.38;;
45762;SDS011;37512;52.408;13.356;2024-01-27T02:49:03;10.05;;;2.97;;
45762;SDS011;37512;52.408;13.356;2024-01-27T02:53:05;24.27;;;3.40;;
45762;SDS011;37512;52.408;13.356;2024-01-27T02:57:06;19.88;;;2.92;;
45762;SDS011;37512;52.408;13.356;2024-01-27T03:01:08;11.15;;;3.47;;
45762;SDS011;37512;52.408;13.356;2024-01-27T03:05:10;14.65;;;3.10;;
45762;SDS011;37512;52.408;13.356;2024-01-27T03:09:15;29.13;;;3.03;;
45762;SDS011;37512;52.408;13.356;2024-01-27T03:13:17;13.00;;;3.45;;
45762;SDS011;37512;52.408;13.356;2024-01-27T03:17:20;8.23;;;2.03;;
45762;SDS011;37512;52.408;13.356;2024-01-27T03:21:22;15.05;;;2.35;;
45762;SDS011;37512;52.408;13.356;2024-01-27T03:25:24;4.65;;;2.10;;
45762;SDS011;37512;52.408;13.356;2024-01-27T03:29:27;9.50;;;2.47;;
45762;SDS011;37512;52.408;13.356;2024-01-27T03:33:29;16.25;;;2.60;;
45762;SDS011;37512;52.408;13.356;2024-01-27T03:37:32;12.10;;;3.08;;
45762;SDS011;37512;52.408;13.356;2024-01-27T03:41:36;3.65;;;1.15;;
45762;SDS011;37512;52.408;13.356;2024-01-27T03:45:37;14.50;;;3.40;;
45762;SDS011;37512;52.408;13.356;2024-01-27T03:49:39;6.50;;;1.77;;
45762;SDS011;37512;52.408;13.356;2024-01-27T03:53:41;9.73;;;2.80;;
45762;SDS011;37512;52.408;13.356;2024-01-27T03:57:43;18.50;;;3.33;;
45762;SDS011;37512;52.408;13.356;2024-01-27T04:01:45;14.55;;;2.47;;
45762;SDS011;37512;52.408;13.356;2024-01-27T04:05:46;9.65;;;2.40;;
45762;SDS011;37512;52.408;13.356;2024-01-27T04:09:48;17.73;;;3.58;;
45762;SDS011;37512;52.408;13.356;2024-01-27T04:13:50;16.48;;;2.63;;
45762;SDS011;37512;52.408;13.356;2024-01-27T04:17:52;10.93;;;2.50;;
45762;SDS011;37512;52.408;13.356;2024-01-27T04:21:54;22.08;;;3.72;;
45762;SDS011;37512;52.408;13.356;2024-01-27T04:25:55;19.25;;;3.10;;
45762;SDS011;37512;52.408;13.356;2024-01-27T04:29:57;19.67;;;3.25;;
45762;SDS011;37512;52.408;13.356;2024-01-27T04:33:59;21.67;;;2.22;;
45762;SDS011;37512;52.408;13.356;2024-01-27T04:38:01;9.73;;;2.45;;
45762;SDS011;37512;52.408;13.356;2024-01-27T04:42:04;11.80;;;2.67;;
45762;SDS011;37512;52.408;13.356;2024-01-27T04:46:07;15.02;;;3.22;;
45762;SDS011;37512;52.408;13.356;2024-01-27T04:50:09;13.65;;;3.42;;
45762;SDS011;37512;52.408;13.356;2024-01-27T04:54:11;11.25;;;2.15;;
45762;SDS011;37512;52.408;13.356;2024-01-27T04:58:12;7.03;;;1.95;;
45762;SDS011;37512;52.408;13.356;2024-01-27T05:02:14;10.27;;;2.88;;
45762;SDS011;37512;52.408;13.356;2024-01-27T05:06:16;10.43;;;2.55;;
45762;SDS011;37512;52.408;13.356;2024-01-27T05:10:18;3.53;;;2.10;;
45762;SDS011;37512;52.408;13.356;2024-01-27T05:14:20;11.63;;;2.00;;
45762;SDS011;37512;52.408;13.356;2024-01-27T05:18:22;18.10;;;2.63;;
45762;SDS011;37512;52.408;13.356;2024-01-27T05:22:23;20.23;;;2.75;;
45762;SDS011;37512;52.408;13.356;2024-01-27T05:26:29;15.45;;;3.00;;
45762;SDS011;37512;52.408;13.356;2024-01-27T05:30:31;13.02;;;2.80;;
45762;SDS011;37512;52.408;13.356;2024-01-27T05:34:33;5.68;;;1.70;;
45762;SDS011;37512;52.408;13.356;2024-01-27T05:38:35;13.13;;;3.17;;
45762;SDS011;37512;52.408;13.356;2024-01-27T05:42:37;13.02;;;2.65;;
45762;SDS011;37512;52.408;13.356;2024-01-27T05:46:41;13.07;;;2.35;;
45762;SDS011;37512;52.408;13.356;2024-01-27T05:50:43;20.60;;;4.22;;
45762;SDS011;37512;52.408;13.356;2024-01-27T05:54:45;7.57;;;2.20;;
45762;SDS011;37512;52.408;13.356;2024-01-27T05:58:47;17.88;;;3.15;;
45762;SDS011;37512;52.408;13.356;2024-01-27T06:02:49;16.17;;;2.90;;
45762;SDS011;37512;52.408;13.356;2024-01-27T06:06:50;18.17;;;3.58;;
45762;SDS011;37512;52.408;13.356;2024-01-27T06:10:52;7.55;;;2.17;;
45762;SDS011;37512;52.408;13.356;2024-01-27T06:14:54;8.23;;;1.58;;
45762;SDS011;37512;52.408;13.356;2024-01-27T06:18:56;10.13;;;1.83;;
45762;SDS011;37512;52.408;13.356;2024-01-27T06:22:58;6.85;;;2.67;;
45762;SDS011;37512;52.408;13.356;2024-01-27T06:26:59;12.13;;;3.08;;
45762;SDS011;37512;52.408;13.356;2024-01-27T06:31:02;12.95;;;2.80;;
45762;SDS011;37512;52.408;13.356;2024-01-27T06:35:04;15.85;;;2.83;;
45762;SDS011;37512;52.408;13.356;2024-01-27T06:39:06;7.50;;;2.70;;
45762;SDS011;37512;52.408;13.356;2024-01-27T06:43:10;7.13;;;2.72;;
45762;SDS011;37512;52.408;13.356;2024-01-27T06:47:13;12.88;;;2.33;;
45762;SDS011;37512;52.408;13.356;2024-01-27T06:51:15;10.65;;;2.50;;
45762;SDS011;37512;52.408;13.356;2024-01-27T06:55:17;12.18;;;2.92;;
45762;SDS011;37512;52.408;13.356;2024-01-27T06:59:19;12.45;;;2.40;;
45762;SDS011;37512;52.408;13.356;2024-01-27T07:03:21;10.30;;;2.00;;
45762;SDS011;37512;52.408;13.356;2024-01-27T07:07:26;19.42;;;3.72;;
45762;SDS011;37512;52.408;13.356;2024-01-27T07:11:28;20.70;;;3.08;;
45762;SDS011;37512;52.408;13.356;2024-01-27T07:15:30;13.50;;;2.92;;
45762;SDS011;37512;52.408;13.356;2024-01-27T07:19:32;16.73;;;3.47;;
45762;SDS011;37512;52.408;13.356;2024-01-27T07:23:34;18.83;;;3.15;;
45762;SDS011;37512;52.408;13.356;2024-01-27T07:27:38;16.13;;;2.80;;
45762;SDS011;37512;52.408;13.356;2024-01-27T07:31:40;10.52;;;2.85;;
45762;SDS011;37512;52.408;13.356;2024-01-27T07:35:42;11.18;;;4.07;;
45762;SDS011;37512;52.408;13.356;2024-01-27T07:39:44;22.13;;;2.70;;
45762;SDS011;37512;52.408;13.356;2024-01-27T07:43:45;7.90;;;2.30;;
45762;SDS011;37512;52.408;13.356;2024-01-27T07:47:47;14.18;;;2.65;;
45762;SDS011;37512;52.408;13.356;2024-01-27T07:51:49;20.42;;;3.92;;
45762;SDS011;37512;52.408;13.356;2024-01-27T07:55:50;21.27;;;4.40;;
45762;SDS011;37512;52.408;13.356;2024-01-27T07:59:55;6.75;;;1.90;;
45762;SDS011;37512;52.408;13.356;2024-01-27T08:03:57;11.60;;;2.60;;
45762;SDS011;37512;52.408;13.356;2024-01-27T08:07:59;16.05;;;2.90;;
45762;SDS011;37512;52.408;13.356;2024-01-27T08:12:01;19.45;;;3.25;;
45762;SDS011;37512;52.408;13.356;2024-01-27T08:16:03;16.13;;;3.92;;
45762;SDS011;37512;52.408;13.356;2024-01-27T08:20:06;17.27;;;3.33;;
45762;SDS011;37512;52.408;13.356;2024-01-27T08:24:10;9.45;;;3.20;;
45762;SDS011;37512;52.408;13.356;2024-01-27T08:28:12;14.73;;;2.55;;
45762;SDS011;37512;52.408;13.356;2024-01-27T08:32:14;10.95;;;3.15;;
45762;SDS011;37512;52.408;13.356;2024-01-27T08:36:15;12.57;;;2.67;;
45762;SDS011;37512;52.408;13.356;2024-01-27T08:40:17;18.02;;;3.00;;
45762;SDS011;37512;52.408;13.356;2024-01-27T08:44:19;13.45;;;3.75;;
45762;SDS011;37512;52.408;13.356;2024-01-27T08:48:21;10.57;;;2.30;;
45762;SDS011;37512;52.408;13.356;2024-01-27T08:52:23;15.35;;;3.13;;
45762;SDS011;37512;52.408;13.356;2024-01-27T08:56:25;13.38;;;2.88;;
45762;SDS011;37512;52.408;13.356;2024-01-27T09:00:26;14.75;;;2.38;;
45762;SDS011;37512;52.408;13.356;2024-01-27T09:04:28;11.40;;;2.95;;
45762;SDS011;37512;52.408;13.356;2024-01-27T09:08:30;9.93;;;2.50;;
45762;SDS011;37512;52.408;13.356;2024-01-27T09:12:32;16.25;;;3.42;;
45762;SDS011;37512;52.408;13.356;2024-01-27T09:16:34;20.02;;;3.33;;
45762;SDS011;37512;52.408;13.356;2024-01-27T09:20:36;12.73;;;2.58;;
45762;SDS011;37512;52.408;13.356;2024-01-27T09:24:37;11.68;;;2.78;;
45762;SDS011;37512;52.408;13.356;2024-01-27T09:28:40;15.93;;;3.45;;
45762;SDS011;37512;52.408;13.356;2024-01-27T09:32:46;14.52;;;2.72;;
45762;SDS011;37512;52.408;13.356;2024-01-27T09:36:48;7.68;;;3.05;;
45762;SDS011;37512;52.408;13.356;2024-01-27T09:40:49;12.00;;;2.65;;
45762;SDS011;37512;52.408;13.356;2024-01-27T09:44:51;11.25;;;2.58;;
45762;SDS011;37512;52.408;13.356;2024-01-27T09:48:57;11.80;;;3.47;;
45762;SDS011;37512;52.408;13.356;2024-01-27T09:53:00;19.58;;;4.70;;
45762;SDS011;37512;52.408;13.356;2024-01-27T09:57:02;12.23;;;2.45;;
45762;SDS011;37512;52.408;13.356;2024-01-27T10:01:04;20.08;;;4.25;;
45762;SDS011;37512;52.408;13.356;2024-01-27T10:05:07;15.60;;;3.22;;
45762;SDS011;37512;52.408;13.356;2024-01-27T10:09:11;19.05;;;3.67;;
45762;SDS011;37512;52.408;13.356;2024-01-27T10:13:16;10.63;;;2.63;;
45762;SDS011;37512;52.408;13.356;2024-01-27T10:17:22;15.50;;;3.63;;
45762;SDS011;37512;52.408;13.356;2024-01-27T10:21:31;16.05;;;2.97;;
45762;SDS011;37512;52.408;13.356;2024-01-27T10:25:32;13.63;;;3.80;;
45762;SDS011;37512;52.408;13.356;2024-01-27T10:29:38;16.20;;;3.38;;
45762;SDS011;37512;52.408;13.356;2024-01-27T10:33:50;14.55;;;4.05;;
45762;SDS011;37512;52.408;13.356;2024-01-27T10:37:53;17.50;;;3.85;;
45762;SDS011;37512;52.408;13.356;2024-01-27T10:42:00;21.77;;;3.95;;
45762;SDS011;37512;52.408;13.356;2024-01-27T10:46:08;20.75;;;3.75;;
45762;SDS011;37512;52.408;13.356;2024-01-27T10:50:09;19.83;;;5.22;;
45762;SDS011;37512;52.408;13.356;2024-01-27T10:54:15;25.23;;;3.63;;
45762;SDS011;37512;52.408;13.356;2024-01-27T10:58:24;14.88;;;2.60;;
45762;SDS011;37512;52.408;13.356;2024-01-27T11:02:26;17.80;;;3.70;;
45762;SDS011;37512;52.408;13.356;2024-01-27T11:06:33;15.55;;;3.50;;
45762;SDS011;37512;52.408;13.356;2024-01-27T11:10:36;12.77;;;3.72;;
45762;SDS011;37512;52.408;13.356;2024-01-27T11:14:39;13.13;;;3.58;;
45762;SDS011;37512;52.408;13.356;2024-01-27T11:18:44;18.83;;;3.42;;
45762;SDS011;37512;52.408;13.356;2024-01-27T11:22:46;18.02;;;3.70;;
45762;SDS011;37512;52.408;13.356;2024-01-27T11:26:48;10.00;;;2.83;;
45762;SDS011;37512;52.408;13.356;2024-01-27T11:31:05;14.23;;;3.58;;
45762;SDS011;37512;52.408;13.356;2024-01-27T11:35:08;9.93;;;2.70;;
45762;SDS011;37512;52.408;13.356;2024-01-27T11:43:31;17.70;;;2.92;;
45762;SDS011;37512;52.408;13.356;2024-01-27T11:47:33;16.02;;;3.50;;
45762;SDS011;37512;52.408;13.356;2024-01-27T11:51:34;20.67;;;4.72;;
45762;SDS011;37512;52.408;13.356;2024-01-27T11:55:37;11.73;;;2.97;;
45762;SDS011;37512;52.408;13.356;2024-01-27T11:59:39;12.38;;;2.95;;
45762;SDS011;37512;52.408;13.356;2024-01-27T12:03:40;14.73;;;4.43;;
45762;SDS011;37512;52.408;13.356;2024-01-27T12:07:46;15.75;;;4.75;;
45762;SDS011;37512;52.408;13.356;2024-01-27T12:11:48;20.75;;;5.25;;
45762;SDS011;37512;52.408;13.356;2024-01-27T12:15:50;15.73;;;4.10;;
45762;SDS011;37512;52.408;13.356;2024-01-27T12:19:52;23.52;;;4.60;;
45762;SDS011;37512;52.408;13.356;2024-01-27T12:23:56;16.65;;;3.92;;
45762;SDS011;37512;52.408;13.356;2024-01-27T12:28:05;12.82;;;3.42;;
45762;SDS011;37512;52.408;13.356;2024-01-27T12:32:08;13.57;;;4.22;;
45762;SDS011;37512;52.408;13.356;2024-01-27T12:36:11;14.80;;;3.47;;
45762;SDS011;37512;52.408;13.356;2024-01-27T12:40:17;6.65;;;1.95;;
45762;SDS011;37512;52.408;13.356;2024-01-27T12:44:24;15.07;;;4.07;;
45762;SDS011;37512;52.408;13.356;2024-01-27T12:48:26;21.08;;;4.75;;
45762;SDS011;37512;52.408;13.356;2024-01-27T12:52:27;20.83;;;5.15;;
45762;SDS011;37512;52.408;13.356;2024-01-27T12:56:29;20.63;;;4.22;;
45762;SDS011;37512;52.408;13.356;2024-01-27T13:00:30;19.88;;;4.05;;
45762;SDS011;37512;52.408;13.356;2024-01-27T13:04:32;15.02;;;4.80;;
45762;SDS011;37512;52.408;13.356;2024-01-27T13:08:34;2.67;;;1.88;;
45762;SDS011;37512;52.408;13.356;2024-01-27T13:12:35;13.32;;;3.33;;
45762;SDS011;37512;52.408;13.356;2024-01-27T13:16:37;12.32;;;3.47;;
45762;SDS011;37512;52.408;13.356;2024-01-27T13:20:39;15.95;;;3.75;;
45762;SDS011;37512;52.408;13.356;2024-01-27T13:24:41;21.55;;;3.90;;
45762;SDS011;37512;52.408;13.356;2024-01-27T13:28:43;17.98;;;3.55;;
45762;SDS011;37512;52.408;13.356;2024-01-27T13:32:44;14.10;;;4.35;;
45762;SDS011;37512;52.408;13.356;2024-01-27T13:36:46;5.97;;;1.77;;
45762;SDS011;37512;52.408;13.356;2024-01-27T13:40:49;4.57;;;2.30;;
45762;SDS011;37512;52.408;13.356;2024-01-27T13:44:52;13.52;;;2.38;;
45762;SDS011;37512;52.408;13.356;2024-01-27T13:48:54;12.73;;;3.42;;
45762;SDS011;37512;52.408;13.356;2024-01-27T13:52:56;14.32;;;3.15;;
45762;SDS011;37512;52.408;13.356;2024-01-27T13:56:59;12.68;;;2.90;;
45762;SDS011;37512;52.408;13.356;2024-01-27T14:01:00;17.38;;;3.50;;
45762;SDS011;37512;52.408;13.356;2024-01-27T14:05:03;17.00;;;2.85;;
45762;SDS011;37512;52.408;13.356;2024-01-27T14:09:05;15.55;;;3.58;;
45762;SDS011;37512;52.408;13.356;2024-01-27T14:13:08;13.60;;;2.72;;
45762;SDS011;37512;52.408;13.356;2024-01-27T14:17:11;13.38;;;3.38;;
45762;SDS011;37512;52.408;13.356;2024-01-27T14:21:13;14.95;;;3.03;;
45762;SDS011;37512;52.408;13.356;2024-01-27T14:25:15;16.33;;;3.30;;
45762;SDS011;37512;52.408;13.356;2024-01-27T14:29:17;9.18;;;2.90;;
45762;SDS011;37512;52.408;13.356;2024-01-27T14:33:19;14.43;;;3.22;;
45762;SDS011;37512;52.408;13.356;2024-01-27T14:37:22;14.60;;;2.70;;
45762;SDS011;37512;52.408;13.356;2024-01-27T14:41:24;16.05;;;3.78;;
45762;SDS011;37512;52.408;13.356;2024-01-27T14:45:25;12.80;;;2.88;;
45762;SDS011;37512;52.408;13.356;2024-01-27T14:49:27;14.77;;;2.67;;
45762;SDS011;37512;52.408;13.356;2024-01-27T14:53:29;15.73;;;3.92;;
45762;SDS011;37512;52.408;13.356;2024-01-27T14:57:31;11.25;;;2.70;;
45762;SDS011;37512;52.408;13.356;2024-01-27T15:01:33;13.57;;;3.95;;
45762;SDS011;37512;52.408;13.356;2024-01-27T15:05:35;12.35;;;2.75;;
45762;SDS011;37512;52.408;13.356;2024-01-27T15:09:42;8.02;;;2.60;;
45762;SDS011;37512;52.408;13.356;2024-01-27T15:13:44;16.58;;;3.15;;
45762;SDS011;37512;52.408;13.356;2024-01-27T15:17:46;18.55;;;2.55;;
45762;SDS011;37512;52.408;13.356;2024-01-27T15:21:47;11.55;;;2.53;;
45762;SDS011;37512;52.408;13.356;2024-01-27T15:25:49;17.58;;;3.70;;
45762;SDS011;37512;52.408;13.356;2024-01-27T15:29:51;10.20;;;2.72;;
45762;SDS011;37512;52.408;13.356;2024-01-27T15:33:57;10.30;;;2.42;;
45762;SDS011;37512;52.408;13.356;2024-01-27T15:37:58;15.55;;;2.85;;
45762;SDS011;37512;52.408;13.356;2024-01-27T15:42:00;6.72;;;2.38;;
45762;SDS011;37512;52.408;13.356;2024-01-27T15:46:04;15.45;;;3.10;;
45762;SDS011;37512;52.408;13.356;2024-01-27T15:50:07;7.75;;;2.35;;
45762;SDS011;37512;52.408;13.356;2024-01-27T15:54:09;10.93;;;3.17;;
45762;SDS011;37512;52.408;13.356;2024-01-27T15:58:10;15.38;;;2.95;;
45762;SDS011;37512;52.408;13.356;2024-01-27T16:02:13;11.55;;;2.70;;
45762;SDS011;37512;52.408;13.356;2024-01-27T16:06:15;13.07;;;3.20;;
45762;SDS011;37512;52.408;13.356;2024-01-27T16:10:17;18.50;;;3.28;;
45762;SDS011;37512;52.408;13.356;2024-01-27T16:14:19;18.92;;;7.00;;
45762;SDS011;37512;52.408;13.356;2024-01-27T16:18:20;19.77;;;4.50;;
45762;SDS011;37512;52.408;13.356;2024-01-27T16:22:22;13.55;;;4.30;;
45762;SDS011;37512;52.408;13.356;2024-01-27T16:26:24;13.05;;;3.78;;
45762;SDS011;37512;52.408;13.356;2024-01-27T16:30:28;17.63;;;3.72;;
45762;SDS011;37512;52.408;13.356;2024-01-27T16:34:30;16.95;;;4.50;;
45762;SDS011;37512;52.408;13.356;2024-01-27T16:38:33;14.90;;;3.35;;
45762;SDS011;37512;52.408;13.356;2024-01-27T16:42:35;13.32;;;3.20;;
45762;SDS011;37512;52.408;13.356;2024-01-27T16:46:39;14.30;;;3.42;;
45762;SDS011;37512;52.408;13.356;2024-01-27T16:50:41;11.93;;;3.50;;
45762;SDS011;37512;52.408;13.356;2024-01-27T16:54:45;12.73;;;3.65;;
45762;SDS011;37512;52.408;13.356;2024-01-27T16:58:47;14.43;;;3.85;;
45762;SDS011;37512;52.408;13.356;2024-01-27T17:02:51;14.13;;;3.90;;
45762;SDS011;37512;52.408;13.356;2024-01-27T17:06:53;13.95;;;4.05;;
45762;SDS011;37512;52.408;13.356;2024-01-27T17:10:54;12.25;;;3.60;;
45762;SDS011;37512;52.408;13.356;2024-01-27T17:14:56;12.43;;;4.30;;
45762;SDS011;37512;52.408;13.356;2024-01-27T17:18:58;14.02;;;4.18;;
45762;SDS011;37512;52.408;13.356;2024-01-27T17:23:02;13.10;;;3.92;;
45762;SDS011;37512;52.408;13.356;2024-01-27T17:27:04;12.38;;;5.65;;
45762;SDS011;37512;52.408;13.356;2024-01-27T17:31:09;13.35;;;4.35;;
45762;SDS011;37512;52.408;13.356;2024-01-27T17:35:14;15.23;;;4.25;;
45762;SDS011;37512;52.408;13.356;2024-01-27T17:39:16;15.82;;;4.97;;
45762;SDS011;37512;52.408;13.356;2024-01-27T17:43:18;22.17;;;5.53;;
45762;SDS011;37512;52.408;13.356;2024-01-27T17:47:20;16.70;;;6.28;;
45762;SDS011;37512;52.408;13.356;2024-01-27T17:51:21;15.45;;;5.68;;
45762;SDS011;37512;52.408;13.356;2024-01-27T17:55:25;14.95;;;5.20;;
45762;SDS011;37512;52.408;13.356;2024-01-27T17:59:27;26.95;;;9.65;;
45762;SDS011;37512;52.408;13.356;2024-01-27T18:03:29;21.65;;;8.60;;
45762;SDS011;37512;52.408;13.356;2024-01-27T18:07:31;21.50;;;6.35;;
45762;SDS011;37512;52.408;13.356;2024-01-27T18:11:32;20.83;;;5.28;;
45762;SDS011;37512;52.408;13.356;2024-01-27T18:15:34;15.20;;;7.13;;
45762;SDS011;37512;52.408;13.356;2024-01-27T18:19:36;15.88;;;6.20;;
45762;SDS011;37512;52.408;13.356;2024-01-27T18:23:38;14.20;;;6.00;;
45762;SDS011;37512;52.408;13.356;2024-01-27T18:27:39;15.27;;;6.53;;
45762;SDS011;37512;52.408;13.356;2024-01-27T18:31:44;14.18;;;5.32;;
45762;SDS011;37512;52.408;13.356;2024-01-27T18:35:46;16.85;;;5.25;;
45762;SDS011;37512;52.408;13.356;2024-01-27T18:39:47;15.05;;;5.05;;
45762;SDS011;37512;52.408;13.356;2024-01-27T18:43:49;16.30;;;5.30;;
45762;SDS011;37512;52.408;13.356;2024-01-27T18:47:51;20.88;;;6.00;;
45762;SDS011;37512;52.408;13.356;2024-01-27T18:51:52;18.92;;;7.20;;
45762;SDS011;37512;52.408;13.356;2024-01-27T18:55:56;15.60;;;4.43;;
45762;SDS011;37512;52.408;13.356;2024-01-27T18:59:57;20.48;;;5.93;;
45762;SDS011;37512;52.408;13.356;2024-01-27T19:03:59;15.57;;;5.35;;
45762;SDS011;37512;52.408;13.356;2024-01-27T19:08:00;9.85;;;5.22;;
45762;SDS011;37512;52.408;13.356;2024-01-27T19:12:02;14.30;;;3.78;;
45762;SDS011;37512;52.408;13.356;2024-01-27T19:16:06;15.50;;;4.82;;
45762;SDS011;37512;52.408;13.356;2024-01-27T19:20:08;15.25;;;5.30;;
45762;SDS011;37512;52.408;13.356;2024-01-27T19:24:14;17.65;;;4.93;;
45762;SDS011;37512;52.408;13.356;2024-01-27T19:28:15;9.90;;;3.00;;
45762;SDS011;37512;52.408;13.356;2024-01-27T19:32:17;13.27;;;5.10;;
45762;SDS011;37512;52.408;13.356;2024-01-27T19:36:19;11.90;;;2.80;;
45762;SDS011;37512;52.408;13.356;2024-01-27T19:40:20;14.85;;;4.57;;
45762;SDS011;37512;52.408;13.356;2024-01-27T19:44:22;13.60;;;5.55;;
45762;SDS011;37512;52.408;13.356;2024-01-27T19:48:23;18.23;;;6.13;;
45762;SDS011;37512;52.408;13.356;2024-01-27T19:52:27;15.18;;;5.55;;
45762;SDS011;37512;52.408;13.356;2024-01-27T19:56:28;23.77;;;6.13;;
45762;SDS011;37512;52.408;13.356;2024-01-27T20:00:33;20.15;;;6.40;;
45762;SDS011;37512;52.408;13.356;2024-01-27T20:04:35;19.35;;;5.97;;
45762;SDS011;37512;52.408;13.356;2024-01-27T20:08:37;21.95;;;6.50;;
45762;SDS011;37512;52.408;13.356;2024-01-27T20:12:39;23.13;;;6.60;;
45762;SDS011;37512;52.408;13.356;2024-01-27T20:16:44;21.80;;;7.57;;
45762;SDS011;37512;52.408;13.356;2024-01-27T20:20:48;20.75;;;6.18;;
45762;SDS011;37512;52.408;13.356;2024-01-27T20:24:54;18.25;;;5.68;;
45762;SDS011;37512;52.408;13.356;2024-01-27T20:28:56;18.13;;;6.22;;
45762;SDS011;37512;52.408;13.356;2024-01-27T20:32:57;14.32;;;4.43;;
45762;SDS011;37512;52.408;13.356;2024-01-27T20:37:00;17.58;;;6.03;;
45762;SDS011;37512;52.408;13.356;2024-01-27T20:41:02;19.55;;;6.20;;
45762;SDS011;37512;52.408;13.356;2024-01-27T20:45:04;22.58;;;6.15;;
45762;SDS011;37512;52.408;13.356;2024-01-27T20:49:06;21.92;;;5.65;;
45762;SDS011;37512;52.408;13.356;2024-01-27T20:53:08;11.77;;;5.00;;
45762;SDS011;37512;52.408;13.356;2024-01-27T20:57:10;16.45;;;5.18;;
45762;SDS011;37512;52.408;13.356;2024-01-27T21:01:12;12.82;;;3.53;;
45762;SDS011;37512;52.408;13.356;2024-01-27T21:05:14;11.05;;;4.90;;
45762;SDS011;37512;52.408;13.356;2024-01-27T21:09:16;18.55;;;4.95;;
45762;SDS011;37512;52.408;13.356;2024-01-27T21:13:17;20.35;;;6.15;;
45762;SDS011;37512;52.408;13.356;2024-01-27T21:17:20;17.52;;;4.78;;
45762;SDS011;37512;52.408;13.356;2024-01-27T21:21:21;17.83;;;6.07;;
45762;SDS011;37512;52.408;13.356;2024-01-27T21:25:23;22.88;;;5.45;;
45762;SDS011;37512;52.408;13.356;2024-01-27T21:29:24;21.33;;;6.35;;
45762;SDS011;37512;52.408;13.356;2024-01-27T21:33:26;16.05;;;6.45;;
45762;SDS011;37512;52.408;13.356;2024-01-27T21:37:28;15.02;;;6.57;;
45762;SDS011;37512;52.408;13.356;2024-01-27T21:41:30;23.58;;;6.28;;
45762;SDS011;37512;52.408;13.356;2024-01-27T21:45:31;18.27;;;7.28;;
45762;SDS011;37512;52.408;13.356;2024-01-27T21:49:33;18.30;;;5.15;;
45762;SDS011;37512;52.408;13.356;2024-01-27T21:53:35;14.98;;;5.47;;
45762;SDS011;37512;52.408;13.356;2024-01-27T21:57:39;15.55;;;5.43;;
45762;SDS011;37512;52.408;13.356;2024-01-27T22:01:40;15.20;;;5.45;;
45762;SDS011;37512;52.408;13.356;2024-01-27T22:05:42;19.80;;;5.22;;
45762;SDS011;37512;52.408;13.356;2024-01-27T22:09:44;21.73;;;6.32;;
45762;SDS011;37512;52.408;13.356;2024-01-27T22:13:46;17.95;;;5.50;;
45762;SDS011;37512;52.408;13.356;2024-01-27T22:17:48;13.15;;;6.63;;
45762;SDS011;37512;52.408;13.356;2024-01-27T22:21:49;32.25;;;6.78;;
45762;SDS011;37512;52.408;13.356;2024-01-27T22:25:54;17.35;;;5.60;;
45762;SDS011;37512;52.408;13.356;2024-01-27T22:29:56;15.93;;;5.95;;
45762;SDS011;37512;52.408;13.356;2024-01-27T22:33:58;14.15;;;6.03;;
45762;SDS011;37512;52.408;13.356;2024-01-27T22:37:59;14.73;;;6.03;;
45762;SDS011;37512;52.408;13.356;2024-01-27T22:42:01;14.07;;;5.90;;
45762;SDS011;37512;52.408;13.356;2024-01-27T22:46:03;16.60;;;6.78;;
45762;SDS011;37512;52.408;13.356;2024-01-27T22:50:04;15.45;;;6.40;;
45762;SDS011;37512;52.408;13.356;2024-01-27T22:54:06;19.65;;;6.50;;
45762;SDS011;37512;52.408;13.356;2024-01-27T22:58:08;16.50;;;5.95;;
45762;SDS011;37512;52.408;13.356;2024-01-27T23:02:10;20.08;;;5.95;;
45762;SDS011;37512;52.408;13.356;2024-01-27T23:06:12;15.32;;;5.53;;
45762;SDS011;37512;52.408;13.356;2024-01-27T23:10:15;14.35;;;5.90;;
45762;SDS011;37512;52.408;13.356;2024-01-27T23:14:16;14.13;;;5.10;;
45762;SDS011;37512;52.408;13.356;2024-01-27T23:18:18;20.23;;;5.55;;
45762;SDS011;37512;52.408;13.356;2024-01-27T23:22:19;28.17;;;6.43;;
45762;SDS011;37512;52.408;13.356;2024-01-27T23:26:22;19.15;;;6.00;;
45762;SDS011;37512;52.408;13.356;2024-01-27T23:30:25;20.10;;;5.45;;
45762;SDS011;37512;52.408;13.356;2024-01-27T23:34:26;20.25;;;5.68;;
45762;SDS011;37512;52.408;13.356;2024-01-27T23:38:28;16.23;;;5.30;;
45762;SDS011;37512;52.408;13.356;2024-01-27T23:42:30;15.23;;;4.50;;
45762;SDS011;37512;52.408;13.356;2024-01-27T23:46:32;20.65;;;5.35;;